sensor_id;sensor_type;location;lat;lon;timestamp;pressure;altitude;pressure_sealevel;temperature;humidity
67818;BME280;54614;47.576;7.524;2023-08-31T00:00:44;98099.81;;;23.67;50.50
67818;BME280;54614;47.576;7.524;2023-08-31T00:03:11;98105.41;;;23.66;50.36
67818;BME280;54614;47.576;7.524;2023-08-31T00:05:42;98109.94;;;23.65;50.50
67818;BME280;54614;47.576;7.524;2023-08-31T00:08:09;98113.66;;;23.64;50.54
67818;BME280;54614;47.576;7.524;2023-08-31T00:10:36;98108.28;;;23.64;50.83
67818;BME280;54614;47.576;7.524;2023-08-31T00:13:02;98106.66;;;23.63;50.77
67818;BME280;54614;47.576;7.524;2023-08-31T00:15:29;98105.00;;;23.62;50.72
67818;BME280;54614;47.576;7.524;2023-08-31T00:17:55;98096.72;;;23.64;50.56
67818;BME280;54614;47.576;7.524;2023-08-31T00:20:20;98105.19;;;23.67;50.54
67818;BME280;54614;47.576;7.524;2023-08-31T00:22:47;98102.09;;;23.64;50.70
67818;BME280;54614;47.576;7.524;2023-08-31T00:25:13;98105.00;;;23.62;50.47
67818;BME280;54614;47.576;7.524;2023-08-31T00:27:40;98127.09;;;23.64;50.73
67818;BME280;54614;47.576;7.524;2023-08-31T00:30:07;98126.25;;;23.64;50.54
67818;BME280;54614;47.576;7.524;2023-08-31T00:32:37;98120.91;;;23.64;50.62
67818;BME280;54614;47.576;7.524;2023-08-31T00:35:05;98117.38;;;23.63;50.59
67818;BME280;54614;47.576;7.524;2023-08-31T00:37:31;98118.22;;;23.64;50.75
67818;BME280;54614;47.576;7.524;2023-08-31T00:39:57;98120.06;;;23.63;50.67
67818;BME280;54614;47.576;7.524;2023-08-31T00:42:22;98119.84;;;23.65;50.55
67818;BME280;54614;47.576;7.524;2023-08-31T00:44:50;98118.22;;;23.64;50.67
67818;BME280;54614;47.576;7.524;2023-08-31T00:47:16;98117.78;;;23.67;50.33
67818;BME280;54614;47.576;7.524;2023-08-31T00:49:43;98117.38;;;23.63;50.36
67818;BME280;54614;47.576;7.524;2023-08-31T00:52:09;98117.59;;;23.62;50.40
67818;BME280;54614;47.576;7.524;2023-08-31T00:54:36;98119.25;;;23.63;50.51
67818;BME280;54614;47.576;7.524;2023-08-31T00:57:02;98115.53;;;23.64;50.36
67818;BME280;54614;47.576;7.524;2023-08-31T00:59:29;98122.75;;;23.63;50.39
67818;BME280;54614;47.576;7.524;2023-08-31T01:02:22;98113.88;;;23.63;50.57
67818;BME280;54614;47.576;7.524;2023-08-31T01:07:59;98117.81;;;23.60;50.90
67818;BME280;54614;47.576;7.524;2023-08-31T01:10:55;98105.00;;;23.62;50.51
67818;BME280;54614;47.576;7.524;2023-08-31T01:13:25;98105.22;;;23.61;50.79
67818;BME280;54614;47.576;7.524;2023-08-31T01:16:00;98102.75;;;23.59;50.56
67818;BME280;54614;47.576;7.524;2023-08-31T01:18:27;98101.94;;;23.59;50.86
67818;BME280;54614;47.576;7.524;2023-08-31T01:21:10;98101.50;;;23.62;50.84
67818;BME280;54614;47.576;7.524;2023-08-31T01:23:57;98105.22;;;23.61;50.52
67818;BME280;54614;47.576;7.524;2023-08-31T01:26:24;98111.41;;;23.61;50.57
67818;BME280;54614;47.576;7.524;2023-08-31T01:28:52;98107.09;;;23.60;50.59
67818;BME280;54614;47.576;7.524;2023-08-31T01:31:18;98113.50;;;23.59;50.57
67818;BME280;54614;47.576;7.524;2023-08-31T01:33:44;98117.22;;;23.58;50.75
67818;BME280;54614;47.576;7.524;2023-08-31T01:36:28;98113.50;;;23.59;50.65
67818;BME280;54614;47.576;7.524;2023-08-31T01:41:34;98119.91;;;23.58;50.82
67818;BME280;54614;47.576;7.524;2023-08-31T01:44:01;98136.84;;;23.59;50.78
67818;BME280;54614;47.576;7.524;2023-08-31T01:46:29;98131.25;;;23.60;50.94
67818;BME280;54614;47.576;7.524;2023-08-31T01:48:56;98131.25;;;23.60;50.67
67818;BME280;54614;47.576;7.524;2023-08-31T01:51:22;98129.59;;;23.59;51.05
67818;BME280;54614;47.576;7.524;2023-08-31T01:53:48;98136.22;;;23.57;50.99
67818;BME280;54614;47.576;7.524;2023-08-31T01:56:14;98134.16;;;23.59;50.94
67818;BME280;54614;47.576;7.524;2023-08-31T01:58:39;98137.66;;;23.59;50.72
67818;BME280;54614;47.576;7.524;2023-08-31T02:01:05;98135.19;;;23.58;50.97
67818;BME280;54614;47.576;7.524;2023-08-31T02:03:31;98139.13;;;23.55;50.94
67818;BME280;54614;47.576;7.524;2023-08-31T02:05:56;98143.44;;;23.56;50.67
67818;BME280;54614;47.576;7.524;2023-08-31T02:08:23;98141.38;;;23.58;50.49
67818;BME280;54614;47.576;7.524;2023-08-31T02:10:49;98149.22;;;23.60;50.91
67818;BME280;54614;47.576;7.524;2023-08-31T02:13:15;98143.84;;;23.60;50.71
67818;BME280;54614;47.576;7.524;2023-08-31T02:15:42;98138.91;;;23.57;50.94
67818;BME280;54614;47.576;7.524;2023-08-31T02:18:08;98146.34;;;23.55;50.85
67818;BME280;54614;47.576;7.524;2023-08-31T02:20:34;98141.00;;;23.55;50.65
67818;BME280;54614;47.576;7.524;2023-08-31T02:23:00;98138.50;;;23.53;51.01
67818;BME280;54614;47.576;7.524;2023-08-31T02:25:26;98150.91;;;23.54;50.66
67818;BME280;54614;47.576;7.524;2023-08-31T02:27:54;98155.41;;;23.54;50.62
67818;BME280;54614;47.576;7.524;2023-08-31T02:30:21;98154.59;;;23.53;50.77
67818;BME280;54614;47.576;7.524;2023-08-31T02:32:47;98158.31;;;23.52;50.99
67818;BME280;54614;47.576;7.524;2023-08-31T02:35:12;98156.47;;;23.53;50.76
67818;BME280;54614;47.576;7.524;2023-08-31T02:37:38;98157.50;;;23.52;50.91
67818;BME280;54614;47.576;7.524;2023-08-31T02:40:05;98161.00;;;23.52;50.72
67818;BME280;54614;47.576;7.524;2023-08-31T02:42:31;98156.88;;;23.50;50.92
67818;BME280;54614;47.576;7.524;2023-08-31T02:44:57;98158.31;;;23.52;50.91
67818;BME280;54614;47.576;7.524;2023-08-31T02:47:23;98155.84;;;23.51;51.06
67818;BME280;54614;47.576;7.524;2023-08-31T02:49:49;98152.94;;;23.52;51.06
67818;BME280;54614;47.576;7.524;2023-08-31T02:52:14;98160.38;;;23.50;51.07
67818;BME280;54614;47.576;7.524;2023-08-31T02:54:40;98159.34;;;23.51;50.71
67818;BME280;54614;47.576;7.524;2023-08-31T02:57:06;98158.94;;;23.54;50.80
67818;BME280;54614;47.576;7.524;2023-08-31T02:59:33;98159.97;;;23.53;50.80
67818;BME280;54614;47.576;7.524;2023-08-31T03:02:02;98168.22;;;23.52;50.62
67818;BME280;54614;47.576;7.524;2023-08-31T03:04:29;98164.72;;;23.51;50.94
67818;BME280;54614;47.576;7.524;2023-08-31T03:06:54;98165.75;;;23.50;51.04
67818;BME280;54614;47.576;7.524;2023-08-31T03:09:20;98168.00;;;23.53;50.63
67818;BME280;54614;47.576;7.524;2023-08-31T03:11:46;98170.50;;;23.55;50.87
67818;BME280;54614;47.576;7.524;2023-08-31T03:14:12;98176.06;;;23.53;50.94
67818;BME280;54614;47.576;7.524;2023-08-31T03:16:38;98170.69;;;23.53;50.91
67818;BME280;54614;47.576;7.524;2023-08-31T03:19:04;98166.59;;;23.51;51.11
67818;BME280;54614;47.576;7.524;2023-08-31T03:21:30;98166.78;;;23.49;50.74
67818;BME280;54614;47.576;7.524;2023-08-31T03:23:56;98165.16;;;23.48;51.16
67818;BME280;54614;47.576;7.524;2023-08-31T03:26:22;98159.78;;;23.48;50.73
67818;BME280;54614;47.576;7.524;2023-08-31T03:28:47;98162.91;;;23.45;50.83
67818;BME280;54614;47.576;7.524;2023-08-31T03:31:13;98166.19;;;23.47;51.16
67818;BME280;54614;47.576;7.524;2023-08-31T03:33:39;98169.00;;;23.65;50.51
67818;BME280;54614;47.576;7.524;2023-08-31T03:36:05;98168.00;;;23.60;50.46
67818;BME280;54614;47.576;7.524;2023-08-31T03:38:34;98176.06;;;23.53;51.17
67818;BME280;54614;47.576;7.524;2023-08-31T03:41:04;98173.59;;;23.52;50.92
67818;BME280;54614;47.576;7.524;2023-08-31T03:43:30;98170.69;;;23.53;50.75
67818;BME280;54614;47.576;7.524;2023-08-31T03:45:58;98174.41;;;23.52;50.78
67818;BME280;54614;47.576;7.524;2023-08-31T03:48:25;98174.03;;;23.48;51.04
67818;BME280;54614;47.576;7.524;2023-08-31T03:50:52;98189.31;;;23.48;50.65
67818;BME280;54614;47.576;7.524;2023-08-31T03:53:19;98183.53;;;23.44;50.80
67818;BME280;54614;47.576;7.524;2023-08-31T03:55:45;98181.25;;;23.55;50.87
67818;BME280;54614;47.576;7.524;2023-08-31T03:58:10;98180.00;;;23.57;50.83
67818;BME280;54614;47.576;7.524;2023-08-31T04:00:38;98184.13;;;23.53;50.71
67818;BME280;54614;47.576;7.524;2023-08-31T04:03:04;98180.81;;;23.51;51.08
67818;BME280;54614;47.576;7.524;2023-08-31T04:05:34;98189.09;;;23.50;51.07
67818;BME280;54614;47.576;7.524;2023-08-31T04:08:01;98194.69;;;23.48;50.71
67818;BME280;54614;47.576;7.524;2023-08-31T04:10:27;98197.38;;;23.48;52.89
67818;BME280;54614;47.576;7.524;2023-08-31T04:12:55;98196.53;;;23.54;52.41
67818;BME280;54614;47.576;7.524;2023-08-31T04:15:21;98197.16;;;23.56;52.56
67818;BME280;54614;47.576;7.524;2023-08-31T04:17:47;98199.78;;;23.63;51.67
67818;BME280;54614;47.576;7.524;2023-08-31T04:20:13;98204.34;;;23.62;51.02
67818;BME280;54614;47.576;7.524;2023-08-31T04:22:38;98214.47;;;23.60;51.03
67818;BME280;54614;47.576;7.524;2023-08-31T04:25:04;98208.09;;;23.55;51.51
67818;BME280;54614;47.576;7.524;2023-08-31T04:27:30;98209.09;;;23.54;51.36
67818;BME280;54614;47.576;7.524;2023-08-31T04:29:59;98210.34;;;23.51;51.38
67818;BME280;54614;47.576;7.524;2023-08-31T04:32:25;98213.88;;;23.52;51.61
67818;BME280;54614;47.576;7.524;2023-08-31T04:34:52;98218.41;;;23.51;51.23
67818;BME280;54614;47.576;7.524;2023-08-31T04:37:17;98222.97;;;23.51;51.22
67818;BME280;54614;47.576;7.524;2023-08-31T04:39:43;98218.00;;;23.47;51.14
67818;BME280;54614;47.576;7.524;2023-08-31T04:42:09;98224.41;;;23.46;51.34
67818;BME280;54614;47.576;7.524;2023-08-31T04:44:35;98220.91;;;23.46;51.37
67818;BME280;54614;47.576;7.524;2023-08-31T04:47:01;98220.28;;;23.44;51.15
67818;BME280;54614;47.576;7.524;2023-08-31T04:49:26;98224.03;;;23.43;51.10
67818;BME280;54614;47.576;7.524;2023-08-31T04:51:52;98231.03;;;23.44;50.93
67818;BME280;54614;47.576;7.524;2023-08-31T04:54:18;98232.06;;;23.43;51.18
67818;BME280;54614;47.576;7.524;2023-08-31T04:56:44;98236.00;;;23.40;51.27
67818;BME280;54614;47.576;7.524;2023-08-31T04:59:10;98233.94;;;23.42;51.18
67818;BME280;54614;47.576;7.524;2023-08-31T05:01:36;98241.38;;;23.40;51.08
67818;BME280;54614;47.576;7.524;2023-08-31T05:04:03;98242.81;;;23.43;51.00
67818;BME280;54614;47.576;7.524;2023-08-31T05:06:28;98241.78;;;23.44;50.81
67818;BME280;54614;47.576;7.524;2023-08-31T05:08:54;98250.03;;;23.42;51.13
67818;BME280;54614;47.576;7.524;2023-08-31T05:11:20;98251.06;;;23.41;51.00
67818;BME280;54614;47.576;7.524;2023-08-31T05:13:47;98260.34;;;23.45;51.06
67818;BME280;54614;47.576;7.524;2023-08-31T05:16:14;98259.53;;;23.45;51.06
67818;BME280;54614;47.576;7.524;2023-08-31T05:18:39;98258.31;;;23.41;50.96
67818;BME280;54614;47.576;7.524;2023-08-31T05:21:06;98264.50;;;23.41;50.86
67818;BME280;54614;47.576;7.524;2023-08-31T05:23:32;98277.31;;;23.39;51.14
67818;BME280;54614;47.576;7.524;2023-08-31T05:25:58;98275.44;;;23.40;51.13
67818;BME280;54614;47.576;7.524;2023-08-31T05:28:24;98268.22;;;23.40;51.04
67818;BME280;54614;47.576;7.524;2023-08-31T05:30:52;98272.16;;;23.38;51.17
67818;BME280;54614;47.576;7.524;2023-08-31T05:33:19;98278.13;;;23.40;51.12
67818;BME280;54614;47.576;7.524;2023-08-31T05:35:45;98280.59;;;23.41;51.25
67818;BME280;54614;47.576;7.524;2023-08-31T05:38:11;98283.06;;;23.43;51.02
67818;BME280;54614;47.576;7.524;2023-08-31T05:40:38;98277.69;;;23.43;51.06
67818;BME280;54614;47.576;7.524;2023-08-31T05:43:04;98281.59;;;23.47;50.94
67818;BME280;54614;47.576;7.524;2023-08-31T05:45:33;98281.81;;;23.45;50.87
67818;BME280;54614;47.576;7.524;2023-08-31T05:48:00;98280.78;;;23.46;51.33
67818;BME280;54614;47.576;7.524;2023-08-31T05:50:30;98280.59;;;23.41;51.88
67818;BME280;54614;47.576;7.524;2023-08-31T05:52:57;98276.03;;;23.48;51.74
67818;BME280;54614;47.576;7.524;2023-08-31T05:55:23;98280.38;;;23.50;52.12
67818;BME280;54614;47.576;7.524;2023-08-31T05:57:49;98290.28;;;23.56;51.78
67818;BME280;54614;47.576;7.524;2023-08-31T06:00:16;98290.03;;;23.64;51.49
67818;BME280;54614;47.576;7.524;2023-08-31T06:02:43;98296.22;;;23.71;51.13
67818;BME280;54614;47.576;7.524;2023-08-31T06:05:10;98290.25;;;23.69;51.42
67818;BME280;54614;47.576;7.524;2023-08-31T06:07:38;98295.59;;;23.69;51.55
67818;BME280;54614;47.576;7.524;2023-08-31T06:10:05;98293.53;;;23.71;51.33
67818;BME280;54614;47.576;7.524;2023-08-31T06:12:31;98297.28;;;23.63;51.68
67818;BME280;54614;47.576;7.524;2023-08-31T06:14:57;98302.47;;;23.58;51.78
67818;BME280;54614;47.576;7.524;2023-08-31T06:17:23;98306.41;;;23.56;51.85
67818;BME280;54614;47.576;7.524;2023-08-31T06:19:49;98305.75;;;23.54;51.48
67818;BME280;54614;47.576;7.524;2023-08-31T06:22:15;98303.28;;;23.59;51.39
67818;BME280;54614;47.576;7.524;2023-08-31T06:24:40;98308.44;;;23.60;51.41
67818;BME280;54614;47.576;7.524;2023-08-31T06:27:07;98312.16;;;23.59;51.36
67818;BME280;54614;47.576;7.524;2023-08-31T06:29:33;98315.88;;;23.58;51.28
67818;BME280;54614;47.576;7.524;2023-08-31T06:31:59;98314.03;;;23.59;51.12
67818;BME280;54614;47.576;7.524;2023-08-31T06:34:25;98306.56;;;23.67;50.71
67818;BME280;54614;47.576;7.524;2023-08-31T06:36:50;98311.50;;;23.70;50.66
67818;BME280;54614;47.576;7.524;2023-08-31T06:39:16;98308.00;;;23.70;50.83
67818;BME280;54614;47.576;7.524;2023-08-31T06:41:42;98315.25;;;23.63;51.94
67818;BME280;54614;47.576;7.524;2023-08-31T06:44:07;98321.25;;;23.58;51.21
67818;BME280;54614;47.576;7.524;2023-08-31T06:46:33;98308.44;;;23.60;51.31
67818;BME280;54614;47.576;7.524;2023-08-31T06:49:04;98308.22;;;23.62;51.18
67818;BME280;54614;47.576;7.524;2023-08-31T06:51:32;98314.84;;;23.53;52.82
67818;BME280;54614;47.576;7.524;2023-08-31T06:53:58;98323.53;;;23.55;52.28
67818;BME280;54614;47.576;7.524;2023-08-31T06:56:34;98327.88;;;23.56;52.33
67818;BME280;54614;47.576;7.524;2023-08-31T06:59:01;98328.91;;;23.55;52.99
67818;BME280;54614;47.576;7.524;2023-08-31T07:01:28;98329.28;;;23.52;52.74
67818;BME280;54614;47.576;7.524;2023-08-31T07:03:55;98330.75;;;23.54;52.40
67818;BME280;54614;47.576;7.524;2023-08-31T07:06:22;98345.41;;;23.52;52.99
67818;BME280;54614;47.576;7.524;2023-08-31T07:08:47;98336.53;;;23.51;52.57
67818;BME280;54614;47.576;7.524;2023-08-31T07:11:14;98340.47;;;23.48;52.84
67818;BME280;54614;47.576;7.524;2023-08-31T07:13:41;98337.78;;;23.48;53.00
67818;BME280;54614;47.576;7.524;2023-08-31T07:16:07;98343.97;;;23.49;52.48
67818;BME280;54614;47.576;7.524;2023-08-31T07:18:33;98346.66;;;23.49;52.49
67818;BME280;54614;47.576;7.524;2023-08-31T07:20:59;98349.94;;;23.51;52.57
67818;BME280;54614;47.576;7.524;2023-08-31T07:23:24;98358.00;;;23.51;52.38
67818;BME280;54614;47.576;7.524;2023-08-31T07:25:50;98354.50;;;23.51;52.36
67818;BME280;54614;47.576;7.524;2023-08-31T07:28:16;98356.16;;;23.52;52.59
67818;BME280;54614;47.576;7.524;2023-08-31T07:30:43;98359.03;;;23.50;52.52
67818;BME280;54614;47.576;7.524;2023-08-31T07:33:09;98353.47;;;23.52;52.46
67818;BME280;54614;47.576;7.524;2023-08-31T07:35:35;98362.13;;;23.54;52.50
67818;BME280;54614;47.576;7.524;2023-08-31T07:38:01;98364.41;;;23.50;52.66
67818;BME280;54614;47.576;7.524;2023-08-31T07:40:26;98368.75;;;23.51;52.31
67818;BME280;54614;47.576;7.524;2023-08-31T07:42:52;98376.19;;;23.56;52.48
67818;BME280;54614;47.576;7.524;2023-08-31T07:45:18;98378.22;;;23.54;52.21
67818;BME280;54614;47.576;7.524;2023-08-31T07:47:43;98370.19;;;23.60;52.28
67818;BME280;54614;47.576;7.524;2023-08-31T07:50:10;98377.22;;;23.55;52.39
67818;BME280;54614;47.576;7.524;2023-08-31T07:52:37;98377.00;;;23.50;52.59
67818;BME280;54614;47.576;7.524;2023-08-31T07:55:04;98385.06;;;23.50;52.42
67818;BME280;54614;47.576;7.524;2023-08-31T07:57:30;98387.75;;;23.50;52.55
67818;BME280;54614;47.576;7.524;2023-08-31T07:59:55;98390.66;;;23.55;52.34
67818;BME280;54614;47.576;7.524;2023-08-31T08:02:22;98395.59;;;23.58;52.13
67818;BME280;54614;47.576;7.524;2023-08-31T08:04:48;98404.69;;;23.57;52.05
67818;BME280;54614;47.576;7.524;2023-08-31T08:07:13;98405.94;;;23.54;52.25
67818;BME280;54614;47.576;7.524;2023-08-31T08:09:39;98405.28;;;23.52;52.47
67818;BME280;54614;47.576;7.524;2023-08-31T08:12:05;98409.22;;;23.50;52.38
67818;BME280;54614;47.576;7.524;2023-08-31T08:14:33;98412.72;;;23.50;52.60
67818;BME280;54614;47.576;7.524;2023-08-31T08:16:59;98410.03;;;23.50;52.27
67818;BME280;54614;47.576;7.524;2023-08-31T08:19:25;98409.44;;;23.48;52.67
67818;BME280;54614;47.576;7.524;2023-08-31T08:21:51;98411.91;;;23.50;52.59
67818;BME280;54614;47.576;7.524;2023-08-31T08:24:17;98402.00;;;23.50;52.60
67818;BME280;54614;47.576;7.524;2023-08-31T08:26:43;98404.25;;;23.46;52.74
67818;BME280;54614;47.576;7.524;2023-08-31T08:29:09;98404.06;;;23.48;52.54
67818;BME280;54614;47.576;7.524;2023-08-31T08:31:35;98408.41;;;23.49;52.25
67818;BME280;54614;47.576;7.524;2023-08-31T08:34:01;98407.34;;;23.50;52.22
67818;BME280;54614;47.576;7.524;2023-08-31T08:36:29;98419.13;;;23.49;52.31
67818;BME280;54614;47.576;7.524;2023-08-31T08:38:55;98420.78;;;23.50;52.26
67818;BME280;54614;47.576;7.524;2023-08-31T08:41:24;98419.97;;;23.50;52.46
67818;BME280;54614;47.576;7.524;2023-08-31T08:43:51;98428.63;;;23.52;52.59
67818;BME280;54614;47.576;7.524;2023-08-31T08:46:17;98420.78;;;23.50;52.37
67818;BME280;54614;47.576;7.524;2023-08-31T08:48:44;98428.63;;;23.52;52.22
67818;BME280;54614;47.576;7.524;2023-08-31T08:51:13;98432.97;;;23.53;52.58
67818;BME280;54614;47.576;7.524;2023-08-31T08:53:43;98429.91;;;23.56;52.02
67818;BME280;54614;47.576;7.524;2023-08-31T08:56:09;98430.94;;;23.55;52.16
67818;BME280;54614;47.576;7.524;2023-08-31T08:58:35;98432.78;;;23.54;52.42
67818;BME280;54614;47.576;7.524;2023-08-31T09:01:02;98431.75;;;23.55;52.24
67818;BME280;54614;47.576;7.524;2023-08-31T09:03:29;98438.78;;;23.56;52.10
67818;BME280;54614;47.576;7.524;2023-08-31T09:05:55;98437.94;;;23.56;52.51
67818;BME280;54614;47.576;7.524;2023-08-31T09:08:28;98444.75;;;23.58;52.42
67818;BME280;54614;47.576;7.524;2023-08-31T09:10:58;98446.63;;;23.58;51.88
67818;BME280;54614;47.576;7.524;2023-08-31T09:13:27;98446.81;;;23.56;52.15
67818;BME280;54614;47.576;7.524;2023-08-31T09:15:56;98445.19;;;23.55;52.05
67818;BME280;54614;47.576;7.524;2023-08-31T09:18:32;98446.19;;;23.61;51.94
67818;BME280;54614;47.576;7.524;2023-08-31T09:21:01;98443.50;;;23.61;51.83
67818;BME280;54614;47.576;7.524;2023-08-31T09:23:28;98448.25;;;23.65;51.68
67818;BME280;54614;47.576;7.524;2023-08-31T09:25:55;98442.28;;;23.63;52.15
67818;BME280;54614;47.576;7.524;2023-08-31T09:28:24;98439.59;;;23.63;52.19
67818;BME280;54614;47.576;7.524;2023-08-31T09:30:52;98435.47;;;23.61;52.05
67818;BME280;54614;47.576;7.524;2023-08-31T09:33:20;98436.91;;;23.63;51.86
67818;BME280;54614;47.576;7.524;2023-08-31T09:36:00;98441.44;;;23.63;52.18
67818;BME280;54614;47.576;7.524;2023-08-31T09:38:27;98434.22;;;23.63;52.10
67818;BME280;54614;47.576;7.524;2023-08-31T09:41:04;98433.59;;;23.61;51.95
67818;BME280;54614;47.576;7.524;2023-08-31T09:43:32;98442.91;;;23.59;52.32
67818;BME280;54614;47.576;7.524;2023-08-31T09:46:00;98443.72;;;23.59;51.86
67818;BME280;54614;47.576;7.524;2023-08-31T09:48:26;98447.03;;;23.68;51.81
67818;BME280;54614;47.576;7.524;2023-08-31T09:50:54;98443.50;;;23.67;51.69
67818;BME280;54614;47.576;7.524;2023-08-31T09:53:23;98448.47;;;23.64;51.87
67818;BME280;54614;47.576;7.524;2023-08-31T09:55:51;98444.53;;;23.66;52.00
67818;BME280;54614;47.576;7.524;2023-08-31T09:58:20;98449.09;;;23.66;51.69
67818;BME280;54614;47.576;7.524;2023-08-31T10:00:49;98447.84;;;23.68;51.84
67818;BME280;54614;47.576;7.524;2023-08-31T10:03:15;98435.88;;;23.64;51.85
67818;BME280;54614;47.576;7.524;2023-08-31T10:05:47;98441.03;;;23.66;52.03
67818;BME280;54614;47.576;7.524;2023-08-31T10:08:14;98429.66;;;23.70;51.89
67818;BME280;54614;47.576;7.524;2023-08-31T10:10:41;98435.44;;;23.67;52.00
67818;BME280;54614;47.576;7.524;2023-08-31T10:13:07;98436.88;;;23.70;51.72
67818;BME280;54614;47.576;7.524;2023-08-31T10:15:35;98431.31;;;23.71;51.68
67818;BME280;54614;47.576;7.524;2023-08-31T10:18:04;98442.25;;;23.70;52.01
67818;BME280;54614;47.576;7.524;2023-08-31T10:20:32;98434.41;;;23.68;52.09
67818;BME280;54614;47.576;7.524;2023-08-31T10:23:05;98437.72;;;23.70;51.60
67818;BME280;54614;47.576;7.524;2023-08-31T10:31:15;98434.63;;;23.73;51.55
67818;BME280;54614;47.576;7.524;2023-08-31T10:33:44;98427.59;;;23.72;51.54
67818;BME280;54614;47.576;7.524;2023-08-31T10:36:16;98423.25;;;23.71;51.68
67818;BME280;54614;47.576;7.524;2023-08-31T10:38:46;98424.28;;;23.77;51.77
67818;BME280;54614;47.576;7.524;2023-08-31T10:43:55;98410.88;;;23.70;51.58
67818;BME280;54614;47.576;7.524;2023-08-31T10:46:50;98411.06;;;23.69;51.96
67818;BME280;54614;47.576;7.524;2023-08-31T10:49:20;98409.81;;;23.71;51.46
67818;BME280;54614;47.576;7.524;2023-08-31T10:51:48;98411.06;;;23.75;51.52
67818;BME280;54614;47.576;7.524;2023-08-31T10:54:35;98421.59;;;23.77;51.83
67818;BME280;54614;47.576;7.524;2023-08-31T10:57:10;98424.69;;;23.81;51.64
67818;BME280;54614;47.576;7.524;2023-08-31T10:59:53;98418.09;;;23.76;51.82
67818;BME280;54614;47.576;7.524;2023-08-31T11:02:41;98415.59;;;23.75;51.81
67818;BME280;54614;47.576;7.524;2023-08-31T11:07:35;98421.59;;;23.77;51.89
67818;BME280;54614;47.576;7.524;2023-08-31T11:10:13;98423.84;;;23.80;51.61
67818;BME280;54614;47.576;7.524;2023-08-31T11:12:42;98415.59;;;23.82;51.69
67818;BME280;54614;47.576;7.524;2023-08-31T11:15:11;98414.16;;;23.79;51.48
67818;BME280;54614;47.576;7.524;2023-08-31T11:17:39;98421.81;;;23.75;51.70
67818;BME280;54614;47.576;7.524;2023-08-31T11:20:07;98409.41;;;23.74;51.52
67818;BME280;54614;47.576;7.524;2023-08-31T11:22:38;98406.69;;;23.81;51.67
67818;BME280;54614;47.576;7.524;2023-08-31T11:25:05;98410.63;;;23.78;51.79
67818;BME280;54614;47.576;7.524;2023-08-31T11:27:32;98409.00;;;23.77;51.53
67818;BME280;54614;47.576;7.524;2023-08-31T11:29:57;98411.06;;;23.75;51.77
67818;BME280;54614;47.576;7.524;2023-08-31T11:32:24;98404.84;;;23.82;51.77
67818;BME280;54614;47.576;7.524;2023-08-31T11:34:50;98405.25;;;23.85;51.71
67818;BME280;54614;47.576;7.524;2023-08-31T11:37:16;98398.44;;;23.83;51.87
67818;BME280;54614;47.576;7.524;2023-08-31T11:39:53;98410.84;;;23.84;51.46
67818;BME280;54614;47.576;7.524;2023-08-31T11:42:21;98391.81;;;23.85;51.53
67818;BME280;54614;47.576;7.524;2023-08-31T11:44:49;98401.94;;;23.83;51.50
67818;BME280;54614;47.576;7.524;2023-08-31T11:47:17;98400.09;;;23.84;51.67
67818;BME280;54614;47.576;7.524;2023-08-31T11:49:43;98399.25;;;23.83;51.86
67818;BME280;54614;47.576;7.524;2023-08-31T11:52:11;98400.69;;;23.86;51.36
67818;BME280;54614;47.576;7.524;2023-08-31T11:54:39;98407.50;;;23.88;51.65
67818;BME280;54614;47.576;7.524;2023-08-31T11:57:09;98410.38;;;23.93;51.35
67818;BME280;54614;47.576;7.524;2023-08-31T11:59:36;98408.53;;;23.87;51.61
67818;BME280;54614;47.576;7.524;2023-08-31T12:02:08;98412.69;;;23.90;51.53
67818;BME280;54614;47.576;7.524;2023-08-31T12:04:45;98411.22;;;23.87;51.45
67818;BME280;54614;47.576;7.524;2023-08-31T12:07:16;98413.31;;;23.85;51.71
67818;BME280;54614;47.576;7.524;2023-08-31T12:09:42;98416.81;;;23.86;51.60
67818;BME280;54614;47.576;7.524;2023-08-31T12:12:10;98421.78;;;23.89;51.45
67818;BME280;54614;47.576;7.524;2023-08-31T12:14:37;98410.84;;;23.84;51.66
67818;BME280;54614;47.576;7.524;2023-08-31T12:17:08;98414.34;;;23.84;51.64
67818;BME280;54614;47.576;7.524;2023-08-31T12:19:38;98402.97;;;23.89;51.47
67818;BME280;54614;47.576;7.524;2023-08-31T12:22:05;98406.47;;;23.89;51.46
67818;BME280;54614;47.576;7.524;2023-08-31T12:24:42;98410.19;;;23.88;51.74
67818;BME280;54614;47.576;7.524;2023-08-31T12:27:09;98409.38;;;23.88;51.68
67818;BME280;54614;47.576;7.524;2023-08-31T12:29:35;98406.28;;;23.84;51.63
67818;BME280;54614;47.576;7.524;2023-08-31T12:32:01;98402.56;;;23.85;51.57
67818;BME280;54614;47.576;7.524;2023-08-31T12:34:27;98401.94;;;23.83;51.66
67818;BME280;54614;47.576;7.524;2023-08-31T12:36:53;98401.31;;;23.88;51.68
67818;BME280;54614;47.576;7.524;2023-08-31T12:39:19;98408.97;;;23.84;51.72
67818;BME280;54614;47.576;7.524;2023-08-31T12:41:45;98404.81;;;23.88;51.82
67818;BME280;54614;47.576;7.524;2023-08-31T12:44:10;98410.41;;;23.87;51.55
67818;BME280;54614;47.576;7.524;2023-08-31T12:46:36;98403.59;;;23.84;51.61
67818;BME280;54614;47.576;7.524;2023-08-31T12:49:03;98411.88;;;23.83;51.95
67818;BME280;54614;47.576;7.524;2023-08-31T12:51:30;98405.47;;;23.84;51.84
67818;BME280;54614;47.576;7.524;2023-08-31T12:53:57;98395.13;;;23.87;51.46
67818;BME280;54614;47.576;7.524;2023-08-31T12:56:23;98400.50;;;23.87;51.60
67818;BME280;54614;47.576;7.524;2023-08-31T12:58:53;98391.19;;;23.90;51.66
67818;BME280;54614;47.576;7.524;2023-08-31T13:01:21;98392.84;;;23.91;51.80
67818;BME280;54614;47.576;7.524;2023-08-31T13:03:48;98400.28;;;23.89;51.56
67818;BME280;54614;47.576;7.524;2023-08-31T13:06:15;98394.28;;;23.87;51.55
67818;BME280;54614;47.576;7.524;2023-08-31T13:08:45;98388.06;;;23.93;51.42
67818;BME280;54614;47.576;7.524;2023-08-31T13:11:12;98388.47;;;23.96;51.65
67818;BME280;54614;47.576;7.524;2023-08-31T13:13:38;98386.22;;;23.93;51.40
67818;BME280;54614;47.576;7.524;2023-08-31T13:16:04;98382.69;;;23.93;51.81
67818;BME280;54614;47.576;7.524;2023-08-31T13:18:30;98387.47;;;23.91;51.68